Time;durP1;ratioP1;P1;durP2;ratioP2;P2;SDS_P1;SDS_P2;PMS_P1;PMS_P2;Temp;Humidity;BMP_temperature;BMP_pressure;BME280_temperature;BME280_humidity;BME280_pressure;Samples;Min_cycle;Max_cycle;Signal;HPM_P1;HPM_P2
2023/03/26 00:02:22;;;;;;;31.50;16.10;;;;;;;24.45;38.33;98474.45;108124;1253;70995;-65
2023/03/26 00:04:52;;;;;;;29.60;16.30;;;;;;;24.72;37.82;98474.33;108179;1254;72308;-67
2023/03/26 00:07:21;;;;;;;28.60;16.30;;;;;;;24.56;38.08;98470.52;108161;1254;63463;-68
2023/03/26 00:09:49;;;;;;;27.90;14.70;;;;;;;24.63;37.90;98467.52;108152;1253;60369;-66
2023/03/26 00:12:18;;;;;;;31.20;16.00;;;;;;;24.83;37.58;98467.25;108119;1254;75045;-66
2023/03/26 00:14:51;;;;;;;33.60;16.00;;;;;;;24.99;37.38;98468.16;108098;1254;71598;-66
2023/03/26 00:17:20;;;;;;;29.60;16.40;;;;;;;25.13;37.02;98461.95;108142;1254;73652;-66
2023/03/26 00:19:52;;;;;;;26.20;14.30;;;;;;;25.60;36.18;98458.92;108107;1254;63108;-66
2023/03/26 00:22:22;;;;;;;32.40;16.80;;;;;;;25.15;36.79;98457.19;108221;1254;61556;-67
2023/03/26 00:24:50;;;;;;;36.80;16.70;;;;;;;24.87;37.18;98454.80;108173;1254;73925;-65
2023/03/26 00:27:19;;;;;;;27.60;15.90;;;;;;;24.68;37.63;98453.98;108261;1254;70603;-67
2023/03/26 00:29:48;;;;;;;31.90;17.40;;;;;;;24.97;37.13;98441.00;108141;1254;73975;-67
2023/03/26 00:32:16;;;;;;;33.80;17.20;;;;;;;24.87;37.11;98441.67;108232;1256;62237;-66
2023/03/26 00:34:45;;;;;;;33.80;18.50;;;;;;;24.64;37.61;98443.52;108254;1254;60374;-67
2023/03/26 00:37:13;;;;;;;30.90;16.90;;;;;;;24.84;37.15;98440.39;108252;1254;74661;-67
2023/03/26 00:39:47;;;;;;;32.40;17.00;;;;;;;24.87;37.23;98442.40;108323;1254;72011;-66
2023/03/26 00:42:16;;;;;;;31.70;16.90;;;;;;;24.91;37.20;98441.30;108210;1252;72075;-66
2023/03/26 00:44:44;;;;;;;31.80;18.50;;;;;;;25.20;36.60;98440.16;108315;1253;61010;-69
2023/03/26 00:47:12;;;;;;;30.30;16.70;;;;;;;24.97;36.92;98442.39;108182;1253;61273;-67
2023/03/26 00:49:41;;;;;;;32.20;18.50;;;;;;;24.89;36.97;98439.27;108250;1254;74422;-66
2023/03/26 00:52:09;;;;;;;38.20;18.30;;;;;;;24.77;37.13;98439.85;108217;1254;70600;-66
2023/03/26 00:54:37;;;;;;;30.30;18.80;;;;;;;24.71;37.44;98438.48;108186;1257;72649;-67
2023/03/26 00:57:11;;;;;;;31.60;18.20;;;;;;;25.58;35.98;98433.49;108244;1253;62995;-67
2023/03/26 00:59:50;;;;;;;33.40;19.20;;;;;;;25.50;35.96;98433.88;108225;1253;60733;-67
2023/03/26 01:02:19;;;;;;;35.90;20.20;;;;;;;25.29;36.34;98433.80;108233;1253;74837;-66
2023/03/26 01:04:55;;;;;;;34.70;18.00;;;;;;;25.54;35.83;98437.06;108248;1253;70361;-66
2023/03/26 01:07:27;;;;;;;37.80;19.10;;;;;;;25.52;36.05;98434.89;108274;1256;71262;-65
2023/03/26 01:09:58;;;;;;;34.50;19.20;;;;;;;25.14;36.74;98438.48;108333;1253;61806;-66
2023/03/26 01:12:30;;;;;;;36.00;17.80;;;;;;;24.86;37.15;98442.64;108251;1253;60873;-67
2023/03/26 01:14:59;;;;;;;32.70;18.90;;;;;;;24.29;38.24;98442.40;108171;1253;74155;-66
2023/03/26 01:17:33;;;;;;;38.40;20.00;;;;;;;24.33;38.10;98444.02;108284;1253;70358;-66
2023/03/26 01:20:14;;;;;;;35.20;19.70;;;;;;;24.59;37.75;98439.84;108252;1253;72631;-66
2023/03/26 01:22:48;;;;;;;39.10;21.50;;;;;;;24.64;37.83;98435.36;108064;1253;61103;-68
2023/03/26 01:25:16;;;;;;;34.50;19.70;;;;;;;24.83;37.37;98427.33;108375;1252;61160;-66
2023/03/26 01:27:49;;;;;;;37.70;19.30;;;;;;;24.82;37.59;98424.14;108158;1253;74478;-67
2023/03/26 01:30:26;;;;;;;39.80;21.20;;;;;;;25.02;37.14;98419.17;108190;1253;71593;-67
2023/03/26 01:33:13;;;;;;;44.40;22.20;;;;;;;25.34;36.66;98420.36;108210;1253;72550;-66
2023/03/26 01:36:01;;;;;;;36.10;21.10;;;;;;;25.37;36.65;98417.15;108217;1254;63172;-67
2023/03/26 01:38:51;;;;;;;39.40;21.50;;;;;;;26.19;35.28;98419.23;108297;1253;59522;-67
2023/03/26 01:41:23;;;;;;;41.60;23.80;;;;;;;25.98;35.58;98421.58;108193;1256;74539;-67
2023/03/26 01:44:15;;;;;;;41.90;22.40;;;;;;;26.12;35.46;98418.98;108211;1254;69943;-65
2023/03/26 01:46:44;;;;;;;40.80;22.10;;;;;;;25.61;36.24;98417.64;108191;1252;73541;-65
2023/03/26 01:49:12;;;;;;;43.00;26.00;;;;;;;25.46;36.31;98416.04;108197;1254;63242;-66
2023/03/26 01:51:41;;;;;;;41.70;22.80;;;;;;;25.79;35.91;98413.48;108233;1252;61577;-67
2023/03/26 01:54:30;;;;;;;45.20;26.00;;;;;;;25.55;36.25;98409.45;108244;1253;75117;-66
2023/03/26 01:57:09;;;;;;;51.00;26.70;;;;;;;25.19;36.92;98413.21;108288;1253;71634;-67
2023/03/26 01:59:44;;;;;;;42.10;22.90;;;;;;;24.86;37.44;98418.05;108281;1253;73525;-67
2023/03/26 02:02:14;;;;;;;39.50;24.30;;;;;;;25.15;36.97;98414.16;108332;1254;60421;-66
2023/03/26 02:05:09;;;;;;;43.50;25.80;;;;;;;25.21;36.83;98406.58;108375;1253;60364;-66
2023/03/26 02:08:10;;;;;;;39.00;22.80;;;;;;;25.54;36.39;98406.92;108255;1253;72658;-67
2023/03/26 02:10:43;;;;;;;42.70;24.80;;;;;;;25.74;36.05;98406.20;108322;1253;71166;-66
2023/03/26 02:13:14;;;;;;;46.30;25.30;;;;;;;26.18;35.39;98402.33;108215;1253;73332;-66
2023/03/26 02:16:00;;;;;;;38.20;22.90;;;;;;;26.37;35.13;98404.20;108191;1252;62748;-67
2023/03/26 02:18:37;;;;;;;39.00;23.50;;;;;;;26.63;34.69;98403.17;108195;1252;61560;-66
2023/03/26 02:21:14;;;;;;;40.70;23.50;;;;;;;26.60;34.67;98408.98;108265;1253;72710;-67
2023/03/26 02:23:45;;;;;;;39.40;21.80;;;;;;;26.57;34.81;98401.77;108260;1252;70705;-67
2023/03/26 02:26:15;;;;;;;33.60;21.70;;;;;;;26.47;35.03;98404.70;108284;1253;73781;-68
2023/03/26 02:28:57;;;;;;;45.10;24.60;;;;;;;26.08;35.50;98405.37;108275;1253;62659;-68
2023/03/26 02:31:29;;;;;;;38.00;21.70;;;;;;;26.45;35.17;98414.46;108307;1256;60528;-68
2023/03/26 02:33:58;;;;;;;41.50;23.00;;;;;;;26.48;34.93;98426.14;108293;1256;74643;-66
2023/03/26 02:36:28;;;;;;;39.70;23.00;;;;;;;26.43;35.08;98433.77;108296;1252;70564;-68
2023/03/26 02:39:01;;;;;;;38.40;23.00;;;;;;;26.64;34.93;98433.39;108177;1253;73572;-67
2023/03/26 02:41:34;;;;;;;42.20;24.90;;;;;;;26.72;34.62;98446.74;108271;1252;62665;-65
2023/03/26 02:44:06;;;;;;;22.40;14.00;;;;;;;26.67;35.03;98446.56;108304;1254;60463;-66
2023/03/26 02:46:54;;;;;;;19.80;12.30;;;;;;;26.70;35.31;98447.65;107861;1253;75066;-66
2023/03/26 02:49:42;;;;;;;14.80;8.90;;;;;;;26.60;35.48;98448.77;108282;1253;70070;-67
2023/03/26 02:52:15;;;;;;;9.70;7.30;;;;;;;26.66;35.52;98453.73;108268;1253;71836;-67
2023/03/26 02:54:46;;;;;;;8.00;6.10;;;;;;;26.48;35.81;98465.77;108249;1252;62258;-67
2023/03/26 02:57:19;;;;;;;5.70;4.40;;;;;;;26.66;35.58;98475.71;108232;1253;60336;-67
2023/03/26 03:00:12;;;;;;;6.00;4.40;;;;;;;26.97;35.00;98477.10;108201;1253;75047;-66
2023/03/26 03:03:03;;;;;;;8.00;4.70;;;;;;;27.11;34.51;98486.88;108247;1253;71539;-66
2023/03/26 03:05:31;;;;;;;3.90;3.30;;;;;;;26.75;34.87;98489.09;108214;1252;73941;-66
2023/03/26 03:08:28;;;;;;;4.40;3.10;;;;;;;26.51;35.02;98494.48;108239;1253;62739;-66
2023/03/26 03:11:17;;;;;;;3.80;2.90;;;;;;;26.63;34.82;98499.46;108253;1252;60343;-65
2023/03/26 03:13:46;;;;;;;3.00;2.60;;;;;;;26.88;34.26;98505.23;108196;1253;74061;-68
2023/03/26 03:16:34;;;;;;;3.40;2.70;;;;;;;27.46;33.26;98507.10;108210;1252;69966;-67
2023/03/26 03:19:06;;;;;;;4.90;3.40;;;;;;;26.93;33.71;98513.97;108200;1252;74044;-66
2023/03/26 03:21:38;;;;;;;3.80;2.50;;;;;;;26.39;34.33;98519.36;108218;1252;63233;-67
2023/03/26 03:24:08;;;;;;;3.30;2.80;;;;;;;26.45;34.41;98523.34;108296;1253;60992;-67
2023/03/26 03:26:41;;;;;;;3.70;3.10;;;;;;;26.41;34.40;98524.64;108208;1253;74835;-64
2023/03/26 03:29:22;;;;;;;3.70;2.60;;;;;;;26.09;34.63;98527.94;108258;1253;70592;-67
2023/03/26 03:31:51;;;;;;;3.90;3.10;;;;;;;26.27;34.56;98535.13;108239;1253;71696;-65
2023/03/26 03:34:41;;;;;;;4.60;3.60;;;;;;;26.70;33.90;98537.80;108236;1252;61866;-67
2023/03/26 03:37:10;;;;;;;5.70;2.70;;;;;;;26.38;34.05;98547.33;108230;1252;61458;-67
2023/03/26 03:39:44;;;;;;;8.70;3.10;;;;;;;26.60;33.80;98559.58;108292;1253;74800;-66
2023/03/26 03:42:13;;;;;;;4.30;3.40;;;;;;;26.61;33.69;98567.67;108269;1253;69584;-66
2023/03/26 03:44:43;;;;;;;3.30;2.60;;;;;;;26.39;34.08;98573.13;108175;1256;72962;-66
2023/03/26 03:47:26;;;;;;;6.50;3.90;;;;;;;26.71;33.50;98577.05;108109;1252;61587;-66
2023/03/26 03:49:55;;;;;;;4.20;2.80;;;;;;;27.36;32.55;98577.83;108311;1253;60404;-67
2023/03/26 03:52:24;;;;;;;3.00;2.30;;;;;;;27.48;32.32;98576.98;108262;1253;74954;-65
2023/03/26 03:54:55;;;;;;;4.10;3.10;;;;;;;27.30;32.49;98571.55;108483;1252;71548;-66
2023/03/26 03:57:44;;;;;;;5.40;2.40;;;;;;;27.11;32.87;98575.98;108282;1252;73634;-67
2023/03/26 04:00:19;;;;;;;3.40;2.40;;;;;;;27.46;32.26;98587.67;108309;1253;61932;-66
2023/03/26 04:02:53;;;;;;;3.50;2.30;;;;;;;27.06;32.58;98588.69;108145;1253;61065;-65
2023/03/26 04:05:22;;;;;;;3.50;2.40;;;;;;;27.42;32.41;98588.20;108321;1256;75000;-66
2023/03/26 04:07:51;;;;;;;2.70;2.20;;;;;;;27.19;32.45;98590.79;108148;1253;70543;-67
2023/03/26 04:10:23;;;;;;;4.50;3.00;;;;;;;27.49;31.90;98595.89;108217;1252;73886;-66
2023/03/26 04:13:11;;;;;;;4.40;2.00;;;;;;;26.92;32.57;98603.12;108246;1253;62271;-67
2023/03/26 04:15:55;;;;;;;2.80;2.30;;;;;;;26.84;32.84;98606.17;108187;1253;61399;-65
2023/03/26 04:18:26;;;;;;;2.90;2.30;;;;;;;26.94;32.69;98602.58;108195;1253;74151;-66
2023/03/26 04:21:01;;;;;;;3.60;2.30;;;;;;;27.45;31.86;98604.00;108268;1253;71517;-65
2023/03/26 04:23:30;;;;;;;4.50;2.10;;;;;;;27.31;31.96;98606.73;108253;1253;74267;-66
2023/03/26 04:26:09;;;;;;;5.80;2.60;;;;;;;26.88;32.49;98605.82;108239;1253;60642;-65
2023/03/26 04:28:59;;;;;;;3.30;2.00;;;;;;;26.69;32.63;98608.69;108154;1253;60688;-66
2023/03/26 04:34:30;;;;;;;6.30;2.80;;;;;;;21.31;41.78;98628.63;105042;1289;600208;-66
2023/03/26 04:37:08;;;;;;;3.30;2.40;;;;;;;23.49;37.71;98631.59;107355;1263;61345;-67
2023/03/26 04:39:43;;;;;;;3.60;2.60;;;;;;;23.56;37.79;98636.71;107367;1263;59802;-67
2023/03/26 04:42:32;;;;;;;5.30;2.90;;;;;;;24.02;37.27;98642.18;107384;1262;73647;-67
2023/03/26 04:45:21;;;;;;;3.00;2.70;;;;;;;24.40;36.44;98641.15;107404;1262;70634;-67
2023/03/26 04:47:56;;;;;;;4.20;2.70;;;;;;;24.33;36.58;98648.55;107374;1260;154369;-66
2023/03/26 04:50:27;;;;;;;7.20;2.70;;;;;;;25.07;35.41;98652.61;107485;1260;61013;-67
2023/03/26 04:52:57;;;;;;;;;;;;;;;25.12;35.24;98652.75;107528;1263;61296;-65
2023/03/26 04:55:58;;;;;;;4.60;2.50;;;;;;;25.20;35.16;98660.04;107146;1265;73017;-60
2023/03/26 04:58:49;;;;;;;5.30;2.50;;;;;;;25.52;34.57;98656.69;107407;1263;70590;-67
2023/03/26 05:01:17;;;;;;;5.90;2.90;;;;;;;25.52;34.45;98658.59;107382;1263;73498;-63
2023/03/26 05:03:47;;;;;;;4.40;3.10;;;;;;;25.84;34.21;98657.61;107977;1256;62337;-66
2023/03/26 05:06:16;;;;;;;4.30;2.60;;;;;;;26.47;34.01;98659.17;107977;1260;60884;-65
2023/03/26 05:08:48;;;;;;;4.60;2.20;;;;;;;27.51;33.60;98665.70;107824;1256;72585;-67
2023/03/26 05:11:36;;;;;;;5.90;2.20;;;;;;;28.28;32.73;98661.56;107590;1256;71623;-66
2023/03/26 05:14:04;;;;;;;6.00;2.60;;;;;;;28.56;31.97;98663.17;107653;1256;73629;-67
2023/03/26 05:16:35;;;;;;;;;;;;;;;28.66;30.92;98665.45;107669;1256;61691;-64
2023/03/26 05:19:08;;;;;;;6.30;2.70;;;;;;;28.84;30.36;98675.75;107886;1256;61078;-67
2023/03/26 05:21:37;;;;;;;6.20;2.00;;;;;;;29.11;29.26;98672.61;107957;1256;74206;-66
2023/03/26 05:24:09;;;;;;;6.00;2.20;;;;;;;28.54;29.66;98679.54;107601;1256;71503;-66
2023/03/26 05:26:37;;;;;;;5.50;2.70;;;;;;;28.39;30.03;98687.31;107727;1257;73613;-66
2023/03/26 05:29:06;;;;;;;3.50;2.20;;;;;;;27.99;29.81;98691.95;107894;1260;63436;-65
2023/03/26 05:31:44;;;;;;;7.60;2.50;;;;;;;27.86;30.21;98695.93;107905;1256;61263;-65
2023/03/26 05:34:13;;;;;;;4.50;2.30;;;;;;;27.67;30.10;98698.02;107883;1261;74206;-65
2023/03/26 05:36:42;;;;;;;4.80;2.60;;;;;;;27.69;30.25;98698.35;107756;1257;71568;-67
2023/03/26 05:39:42;;;;;;;;;;;;;;;27.68;30.25;98706.30;107880;1256;72913;-66
2023/03/26 05:42:30;;;;;;;3.80;2.20;;;;;;;27.57;30.13;98707.50;107869;1257;63308;-66
2023/03/26 05:45:21;;;;;;;6.70;2.50;;;;;;;27.06;30.98;98699.48;107683;1256;61528;-66
2023/03/26 05:47:54;;;;;;;6.10;2.80;;;;;;;26.83;31.31;98703.52;108285;1253;72819;-67
2023/03/26 05:50:24;;;;;;;5.30;3.20;;;;;;;26.69;31.57;98701.58;108319;1253;71598;-66
2023/03/26 05:52:58;;;;;;;5.60;2.40;;;;;;;26.82;31.18;98703.65;108303;1251;73437;-66
2023/03/26 05:56:06;;;;;;;4.10;2.30;;;;;;;26.77;31.22;98704.80;108310;1255;63163;-66
2023/03/26 05:58:55;;;;;;;3.90;3.10;;;;;;;26.18;31.94;98697.48;108384;1251;61512;-66
2023/03/26 06:01:24;;;;;;;4.30;2.60;;;;;;;26.35;31.71;98688.50;108286;1251;74210;-68
2023/03/26 06:04:12;;;;;;;4.60;2.10;;;;;;;26.78;31.38;98697.38;108375;1253;71621;-64
2023/03/26 06:06:51;;;;;;;3.30;2.50;;;;;;;26.76;31.58;98704.42;108269;1251;73661;-67
2023/03/26 06:09:22;;;;;;;3.70;2.00;;;;;;;26.96;31.13;98708.83;108303;1253;62912;-67
2023/03/26 06:11:50;;;;;;;3.60;2.10;;;;;;;27.02;31.09;98714.02;108203;1253;61247;-68
2023/03/26 06:14:24;;;;;;;6.10;2.70;;;;;;;27.00;31.06;98709.67;108235;1251;73992;-65
2023/03/26 06:17:16;;;;;;;4.40;1.90;;;;;;;26.48;31.63;98720.36;108336;1252;71815;-67
2023/03/26 06:20:12;;;;;;;2.90;2.20;;;;;;;26.57;31.64;98719.81;108270;1252;73118;-67
2023/03/26 06:22:44;;;;;;;4.30;2.40;;;;;;;26.68;31.81;98722.59;108298;1251;61758;-66
2023/03/26 06:25:29;;;;;;;3.10;2.00;;;;;;;27.00;31.31;98726.51;108364;1253;61044;-66
2023/03/26 06:28:20;;;;;;;4.60;2.20;;;;;;;27.29;31.03;98727.13;108212;1253;73896;-68
2023/03/26 06:31:07;;;;;;;6.80;2.50;;;;;;;27.32;30.74;98728.72;108175;1256;71593;-67
2023/03/26 06:33:55;;;;;;;4.30;2.40;;;;;;;27.29;30.83;98726.83;108124;1252;73660;-68
2023/03/26 06:36:24;;;;;;;9.10;2.90;;;;;;;27.39;30.71;98723.13;108158;1251;61838;-68
2023/03/26 06:38:53;;;;;;;3.70;2.40;;;;;;;27.66;30.45;98720.02;108204;1252;60080;-67
2023/03/26 06:41:22;;;;;;;5.20;2.40;;;;;;;28.33;29.54;98722.34;108368;1251;72971;-68
2023/03/26 06:44:20;;;;;;;3.20;1.90;;;;;;;28.54;29.24;98718.51;108145;1251;69737;-68
2023/03/26 06:46:54;;;;;;;5.20;2.40;;;;;;;28.51;28.95;98721.39;108351;1251;73495;-67
2023/03/26 06:49:45;;;;;;;5.70;1.80;;;;;;;28.65;28.61;98725.52;108050;1253;63230;-67
2023/03/26 06:52:36;;;;;;;5.80;2.10;;;;;;;29.04;28.13;98728.15;108349;1251;61487;-66
2023/03/26 06:55:23;;;;;;;3.70;1.90;;;;;;;29.58;27.60;98721.05;108259;1250;74028;-68
2023/03/26 06:58:04;;;;;;;3.20;1.90;;;;;;;30.25;27.44;98723.30;108224;1250;71300;-68
2023/03/26 07:00:56;;;;;;;5.30;1.80;;;;;;;31.31;26.07;98722.13;108108;1254;73546;-67
2023/03/26 07:03:45;;;;;;;2.50;1.60;;;;;;;32.27;24.58;98719.98;108247;1250;61318;-68
2023/03/26 07:06:32;;;;;;;2.90;1.70;;;;;;;32.50;23.65;98722.91;108205;1250;61382;-67
2023/03/26 07:09:18;;;;;;;5.80;1.60;;;;;;;32.19;23.65;98722.39;108252;1250;73319;-67
2023/03/26 07:12:13;;;;;;;3.40;1.50;;;;;;;32.41;23.35;98724.71;108126;1250;69897;-67
2023/03/26 07:15:20;;;;;;;3.00;1.70;;;;;;;32.98;22.93;98720.48;107794;1260;72311;-67
2023/03/26 07:18:09;;;;;;;4.90;1.90;;;;;;;33.21;22.15;98722.56;107413;1259;60669;-67
2023/03/26 07:20:39;;;;;;;3.10;1.50;;;;;;;33.68;21.77;98721.58;108067;1250;60322;-68
2023/03/26 07:23:09;;;;;;;3.20;1.60;;;;;;;33.79;21.46;98722.84;108216;1250;73945;-68
2023/03/26 07:25:53;;;;;;;2.90;1.40;;;;;;;33.69;21.12;98727.67;108258;1250;71568;-68
2023/03/26 07:29:29;;;;;;;3.70;1.40;;;;;;;33.60;21.32;98723.98;108184;1254;74159;-67
2023/03/26 07:32:14;;;;;;;3.30;1.40;;;;;;;34.27;20.72;98718.85;108036;1250;60899;-68
2023/03/26 07:35:27;;;;;;;2.70;1.60;;;;;;;34.88;20.20;98717.98;108226;1254;59606;-68
2023/03/26 07:39:27;;;;;;;2.30;1.50;;;;;;;35.14;19.51;98716.32;107723;1261;65663;-68
2023/03/26 07:42:21;;;;;;;4.60;1.80;;;;;;;35.19;19.25;98718.40;108106;1250;62365;-68
2023/03/26 07:45:24;;;;;;;2.40;1.30;;;;;;;35.32;19.33;98715.37;108184;1250;65000;-67
2023/03/26 07:48:16;;;;;;;6.70;1.80;;;;;;;35.71;19.57;98716.61;108166;1250;59402;-69
2023/03/26 07:51:06;;;;;;;2.20;1.40;;;;;;;36.61;18.63;98715.70;107954;1250;59724;-67
2023/03/26 07:53:59;;;;;;;2.30;1.50;;;;;;;37.33;18.03;98719.11;108157;1253;63182;-67
2023/03/26 07:56:54;;;;;;;3.20;1.20;;;;;;;37.16;17.93;98719.38;108305;1251;62633;-68
2023/03/26 07:59:44;;;;;;;2.10;1.40;;;;;;;37.28;17.98;98718.20;108321;1251;65029;-67
2023/03/26 08:02:37;;;;;;;2.20;1.40;;;;;;;37.72;17.23;98726.23;108327;1256;59462;-68
2023/03/26 08:05:29;;;;;;;3.20;1.50;;;;;;;37.23;17.30;98728.63;108270;1252;61647;-70
2023/03/26 08:08:18;;;;;;;3.10;1.50;;;;;;;36.82;17.52;98734.17;108259;1251;64019;-68
2023/03/26 08:11:27;;;;;;;4.40;1.70;;;;;;;35.77;18.23;98744.19;108006;1253;61617;-69
2023/03/26 08:14:10;;;;;;;4.60;2.00;;;;;;;33.60;20.27;98748.48;108240;1252;65098;-67
2023/03/26 08:16:47;;;;;;;3.40;1.90;;;;;;;33.17;20.80;98749.48;108225;1253;61046;-66
2023/03/26 08:19:39;;;;;;;4.20;2.40;;;;;;;32.68;21.49;98753.11;108182;1253;61745;-67
2023/03/26 08:22:19;;;;;;;4.10;2.00;;;;;;;32.37;21.77;98757.37;108250;1253;73895;-68
2023/03/26 08:25:10;;;;;;;5.60;2.60;;;;;;;32.94;21.21;98766.89;108253;1251;70733;-69
2023/03/26 08:28:03;;;;;;;3.90;2.20;;;;;;;33.42;21.06;98758.89;108204;1251;73487;-67
2023/03/26 08:30:33;;;;;;;4.20;2.10;;;;;;;34.21;20.25;98756.97;108243;1253;61337;-67
2023/03/26 08:33:10;;;;;;;3.90;2.20;;;;;;;34.47;19.91;98749.91;108287;1253;59619;-68
2023/03/26 08:35:41;;;;;;;4.40;2.30;;;;;;;34.15;20.38;98746.73;108221;1255;74175;-68
2023/03/26 08:38:10;;;;;;;6.80;2.50;;;;;;;33.79;20.50;98747.94;108222;1253;62728;-65
2023/03/26 08:41:05;;;;;;;5.60;2.10;;;;;;;33.60;20.66;98753.02;108246;1251;72815;-69
2023/03/26 08:44:02;;;;;;;6.10;2.20;;;;;;;33.17;20.85;98750.94;108313;1251;61660;-68
2023/03/26 08:46:49;;;;;;;8.80;2.50;;;;;;;32.89;21.26;98751.27;108213;1253;60116;-68
2023/03/26 08:49:30;;;;;;;4.20;2.10;;;;;;;32.42;21.72;98749.98;108335;1253;73635;-69
2023/03/26 08:52:28;;;;;;;;;;;;;;;32.69;21.49;98754.73;108290;1256;71025;-68
2023/03/26 08:55:21;;;;;;;4.00;2.20;;;;;;;32.46;21.25;98751.98;107749;1250;73808;-68
2023/03/26 08:58:08;;;;;;;5.80;2.10;;;;;;;31.78;21.83;98751.12;108254;1256;59842;-69
2023/03/26 09:01:00;;;;;;;5.90;2.20;;;;;;;31.97;21.88;98753.64;108232;1251;60376;-68
2023/03/26 09:03:57;;;;;;;5.80;2.20;;;;;;;31.80;22.01;98749.86;108205;1250;74246;-68
2023/03/26 09:06:45;;;;;;;7.00;2.50;;;;;;;32.24;21.96;98750.44;108238;1250;71437;-68
2023/03/26 09:09:16;;;;;;;5.90;2.40;;;;;;;32.52;21.39;98749.01;108217;1250;73958;-68
2023/03/26 09:12:05;;;;;;;3.40;2.00;;;;;;;33.01;21.13;98750.08;108241;1254;61225;-67
2023/03/26 09:14:34;;;;;;;4.70;2.30;;;;;;;32.83;21.26;98742.55;108242;1251;60988;-69
2023/03/26 09:17:21;;;;;;;5.40;2.10;;;;;;;32.75;21.36;98749.53;108270;1252;74029;-66
2023/03/26 09:20:02;;;;;;;4.50;2.30;;;;;;;32.64;21.34;98747.98;108244;1250;71345;-69
2023/03/26 09:22:49;;;;;;;5.00;2.20;;;;;;;31.71;22.25;98744.17;108220;1255;74303;-68
2023/03/26 09:25:53;;;;;;;4.90;2.60;;;;;;;32.00;22.10;98746.31;108242;1250;61616;-69
2023/03/26 09:28:55;;;;;;;6.60;2.80;;;;;;;32.96;21.35;98747.11;108195;1251;60345;-67
2023/03/26 09:32:01;;;;;;;6.50;2.90;;;;;;;33.31;20.90;98749.52;108238;1250;74493;-68
2023/03/26 09:34:35;;;;;;;6.10;3.00;;;;;;;32.99;21.34;98747.13;108202;1254;71780;-69
2023/03/26 09:37:32;;;;;;;5.80;2.90;;;;;;;33.06;21.42;98741.20;108201;1256;73646;-69
2023/03/26 09:40:55;;;;;;;5.10;2.70;;;;;;;33.05;21.28;98740.84;108143;1253;61672;-67
2023/03/26 09:43:32;;;;;;;5.60;2.90;;;;;;;33.42;20.74;98737.16;108027;1251;60335;-68
2023/03/26 09:46:17;;;;;;;8.30;3.60;;;;;;;33.18;20.98;98736.84;108198;1250;73845;-68
2023/03/26 09:49:07;;;;;;;5.70;3.60;;;;;;;32.85;21.20;98732.05;108190;1250;71523;-69
2023/03/26 09:51:51;;;;;;;6.20;3.80;;;;;;;31.95;22.03;98729.67;108138;1251;73650;-68
2023/03/26 09:54:35;;;;;;;7.20;3.10;;;;;;;31.99;22.31;98728.14;108148;1250;60462;-70
2023/03/26 09:57:25;;;;;;;10.00;4.20;;;;;;;32.33;22.00;98725.67;108192;1250;61355;-68
2023/03/26 10:00:13;;;;;;;7.90;4.60;;;;;;;32.12;22.39;98723.46;108176;1250;75560;-68
2023/03/26 10:03:21;;;;;;;9.90;4.20;;;;;;;31.54;22.89;98728.64;108164;1251;69963;-68
2023/03/26 10:06:29;;;;;;;6.90;4.20;;;;;;;32.16;22.08;98727.64;108214;1250;72718;-69
2023/03/26 10:09:00;;;;;;;10.10;4.80;;;;;;;32.46;21.59;98726.16;108190;1250;61628;-68
2023/03/26 10:11:37;;;;;;;7.40;4.60;;;;;;;32.98;21.15;98727.94;108213;1251;61543;-69
2023/03/26 10:14:28;;;;;;;7.50;4.50;;;;;;;33.55;20.85;98726.44;108244;1256;75058;-66
2023/03/26 10:17:41;;;;;;;10.30;5.10;;;;;;;33.19;20.90;98724.44;108356;1251;71249;-69
2023/03/26 10:20:27;;;;;;;9.00;5.50;;;;;;;31.64;22.06;98721.02;108254;1250;72038;-69
2023/03/26 10:23:22;;;;;;;10.10;6.10;;;;;;;31.72;22.56;98723.24;108279;1250;60867;-67
2023/03/26 10:26:20;;;;;;;9.30;5.90;;;;;;;31.92;22.41;98728.08;108907;1250;60364;-68
2023/03/26 10:28:52;;;;;;;10.70;6.70;;;;;;;32.04;22.46;98727.17;108368;1250;73576;-70
2023/03/26 10:31:33;;;;;;;10.80;6.90;;;;;;;31.59;23.06;98733.98;108238;1254;71535;-68
2023/03/26 10:34:02;;;;;;;10.70;7.00;;;;;;;31.54;23.32;98739.11;108448;1251;72512;-68
2023/03/26 10:36:34;;;;;;;12.60;7.20;;;;;;;31.33;23.44;98747.20;108213;1251;61401;-68
2023/03/26 10:39:40;;;;;;;11.90;7.00;;;;;;;31.61;23.28;98747.19;108219;1250;60788;-68
2023/03/26 10:42:10;;;;;;;14.80;9.60;;;;;;;31.50;23.58;98748.64;107645;1260;74537;-68
2023/03/26 10:45:12;;;;;;;17.20;10.00;;;;;;;31.51;23.46;98747.17;107685;1259;69453;-69
2023/03/26 10:47:57;;;;;;;13.30;8.30;;;;;;;31.73;23.49;98741.04;108029;1256;73648;-69
2023/03/26 10:50:54;;;;;;;14.90;9.10;;;;;;;31.54;23.45;98734.80;108214;1254;61245;-68
2023/03/26 10:53:26;;;;;;;16.20;8.60;;;;;;;30.83;24.19;98738.25;108220;1250;61409;-67
2023/03/26 10:55:55;;;;;;;;;;;;;;;30.84;24.01;98736.63;108277;1255;74721;-68
2023/03/26 10:58:31;;;;;;;13.60;7.50;;;;;;;30.48;24.37;98737.20;108319;1256;70081;-67
2023/03/26 11:01:41;;;;;;;15.50;7.90;;;;;;;30.39;24.23;98736.42;108208;1253;73602;-66
2023/03/26 11:04:15;;;;;;;10.00;6.10;;;;;;;30.84;23.67;98741.93;108128;1257;61731;-67
2023/03/26 11:07:02;;;;;;;10.20;6.40;;;;;;;30.63;24.28;98744.88;108171;1251;60342;-68
2023/03/26 11:09:51;;;;;;;14.10;7.90;;;;;;;30.22;24.68;98742.16;108271;1254;74747;-68
2023/03/26 11:12:54;;;;;;;13.60;8.10;;;;;;;30.59;24.19;98746.38;108289;1252;71538;-68
2023/03/26 11:16:02;;;;;;;10.10;6.70;;;;;;;30.92;24.11;98741.45;107998;1257;72716;-69
2023/03/26 11:18:45;;;;;;;14.30;7.40;;;;;;;30.81;24.29;98740.30;108306;1251;61631;-69
2023/03/26 11:21:23;;;;;;;11.40;7.40;;;;;;;30.73;24.44;98736.23;108158;1251;60439;-67
2023/03/26 11:24:33;;;;;;;13.50;7.90;;;;;;;30.98;24.27;98736.30;108331;1256;74908;-66
2023/03/26 11:27:12;;;;;;;13.40;7.10;;;;;;;30.81;24.47;98740.06;108317;1256;71682;-66
2023/03/26 11:30:01;;;;;;;12.50;8.00;;;;;;;30.93;24.25;98734.58;108152;1255;73619;-69
2023/03/26 11:32:38;;;;;;;12.80;7.00;;;;;;;31.14;24.16;98732.31;108245;1251;61261;-68
2023/03/26 11:35:22;;;;;;;8.60;6.00;;;;;;;30.99;24.15;98728.17;108174;1257;60352;-67
2023/03/26 11:38:36;;;;;;;9.90;6.10;;;;;;;30.74;24.72;98731.12;108194;1251;74878;-69
2023/03/26 11:41:11;;;;;;;10.70;6.40;;;;;;;31.51;23.78;98733.21;108146;1251;71490;-67
2023/03/26 11:43:58;;;;;;;11.50;7.20;;;;;;;30.94;24.41;98735.68;108296;1253;73469;-67
2023/03/26 11:46:29;;;;;;;10.60;6.80;;;;;;;31.19;24.40;98734.58;108262;1251;61344;-69
2023/03/26 11:49:02;;;;;;;;;;;;;;;31.68;23.64;98728.23;108025;1251;60181;-68
2023/03/26 11:51:35;;;;;;;12.00;6.30;;;;;;;31.81;23.77;98725.48;108248;1253;73860;-70
2023/03/26 11:54:04;;;;;;;13.00;7.10;;;;;;;31.94;23.19;98727.36;108278;1251;71973;-68
2023/03/26 11:56:48;;;;;;;12.80;6.70;;;;;;;31.95;22.96;98720.23;108242;1251;73989;-68
2023/03/26 12:00:16;;;;;;;15.30;7.80;;;;;;;32.22;23.06;98714.89;108252;1251;62099;-68
2023/03/26 12:02:56;;;;;;;7.80;5.90;;;;;;;32.24;23.20;98710.39;108251;1251;60428;-68
2023/03/26 12:05:30;;;;;;;10.10;5.80;;;;;;;32.00;22.84;98707.70;108307;1251;75054;-68
2023/03/26 12:08:02;;;;;;;9.90;5.70;;;;;;;32.06;22.75;98706.95;108292;1254;71684;-69
2023/03/26 12:10:37;;;;;;;7.30;4.50;;;;;;;32.13;22.94;98707.73;108215;1251;73642;-68
2023/03/26 12:13:27;;;;;;;8.70;5.80;;;;;;;32.44;22.31;98705.02;108215;1251;60437;-68
2023/03/26 12:16:26;;;;;;;11.50;5.40;;;;;;;32.25;22.53;98700.44;108204;1251;61318;-68
2023/03/26 12:19:05;;;;;;;8.00;6.10;;;;;;;31.58;23.12;98698.88;108254;1251;74535;-67
2023/03/26 12:22:03;;;;;;;10.00;5.80;;;;;;;31.12;23.47;98694.92;108252;1251;71288;-67
2023/03/26 12:24:34;;;;;;;10.30;5.90;;;;;;;31.31;23.47;98696.45;108045;1251;73678;-68
2023/03/26 12:27:24;;;;;;;11.30;5.60;;;;;;;31.63;22.98;98697.14;108252;1251;61558;-69
2023/03/26 12:30:18;;;;;;;7.80;5.20;;;;;;;31.33;23.35;98701.60;108184;1251;61813;-69
2023/03/26 12:33:03;;;;;;;10.20;5.20;;;;;;;31.51;23.13;98700.85;108233;1251;74303;-68